OEMA/MED METAR and TAF weather

Enter ICAO airport designator
Station Type Date Time Source
OEMA METAR 2021/09/28 16:00 UTC NOAA

OEMA 281600Z 28009KT 9999 FEW045 39/00 Q1008 NOSIG


Station Type Date Time Source
OEMA Decoded METAR 2021/09/28 16:00 UTC NOAA

Madinah, Saudi Arabia (OEMA) 24-33N 039-42E 636M
Sep 28, 2021 - 12:00 PM EDT / 2021.09.28 1600 UTC
Wind: from the W (280 degrees) at 10 MPH (9 KT):0
Visibility: greater than 7 mile(s):0
Sky conditions: mostly clear
Temperature: 102 F (39 C)
Dew Point: 32 F (0 C)
Relative Humidity: 8%
Pressure (altimeter): 29.77 in. Hg (1008 hPa)
ob: OEMA 281600Z 28009KT 9999 FEW045 39/00 Q1008 NOSIG
cycle: 16

Station Type Date Time Source
OEMA TAF 2021/09/28 12:33 UTC NOAA

TAF OEMA 281100Z 2812/2918 30012KT 9999 FEW045
BECMG 2818/2820 VRB03KT

Example: see airport list